Estación Temperatura (°C) Hum
rel
(%)
Precip
(mm)
Viento (km/h) Actual.
Act Mín Máx Act Dir Máx
Albatera 29,8 22,6 29,8 41 0,0 10 SSO 26 2020-07-09 08:48:00
Almoradí Centro 30,2 22,8 30,3 56 0,0 6 ENE 24 2020-07-09 10:34:00
Almoradí Los Gomares 28,7 22,2 28,8 57 0,0 9 NNO 14 2020-07-09 11:20:00
Bigastro 28,2 22,3 28,3 62 0,0 16 NE 35 2020-07-09 11:18:00
Callosa de Segura 29,8 24,0 29,8 42 0,0 6 SE 19 2020-07-09 07:48:00
Catral 29,7 22,8 29,8 43 0,0 13 SSE 31 2020-07-09 10:04:00
Cox El Jasminao 29,6 22,4 29,6 55 0,0 10 ESE 13 2020-07-09 11:20:00
Cox Centro 29,4 23,0 29,4 49 0,0 6 ESE 11 2020-07-09 11:20:00
Jacarilla El Copo 28,6 23,0 28,6 60 0,0 19 ESE 23 2020-07-09 11:20:00
Jacarilla Centro 29,0 22,8 29,1 59 0,0 11 NE 23 2020-07-09 11:05:00
Orihuela Centro 29,3 22,2 29,3 50 0,0 2 SSE 24 2020-07-09 10:45:00
Orihuela La Campaneta 29,3 22,5 29,3 59 0,0 8 ENE 18 2020-07-09 11:20:00
Orihuela R. de Bonanza 29,4 22,9 29,8 56 0,0 16 E 45 2020-07-09 11:19:00
Rafal 29,7 22,9 29,7 57 0,0 10 SE 26 2020-07-09 11:17:00
Redován 29,6 23,6 29,6 57 0,0 6 ENE 45 2020-07-09 11:18:00
Rojales Ciudad Quesada 28,2 24,1 28,2 65 0,0 8 NE 19 2020-07-09 11:20:00
San Fulgencio Urb. La Marina 27,8 22,8 27,8 62 0,0 24 ENE 31 2020-07-09 11:10:00
San Fulgencio Centro 27,8 22,2 27,8 63 0,0 29 E 35 2020-07-09 11:11:00
Pilar de la Horadada Pinar de Campoverde 27,0 21,7 27,4 61 0,0 13 NE 29 2020-07-09 11:20:00
Pilar de la Horadada Lo Monte 26,8 23,3 27,3 73 0,0 17 ENE 18 2020-07-09 11:20:00
Santomera Centro 29,4 22,4 29,4 45 0,0 10 ESE 14 2020-07-09 11:10:00
Santomera La Almazara 29,3 20,3 29,4 52 1,0 0 NE 39 2020-07-09 11:14:00
Murcia Santo Ángel 28,7 23,0 28,8 49 0,0 4 N 12 2020-07-09 11:10:00
San Javier 27,6 23,1 27,6 66 0,0 8 E 17 2020-07-09 11:10:00
San Pedro del Pinatar 26,6 24,3 26,9 60 0,0 27 NE 45 2020-07-09 11:07:00